sensor_id;sensor_type;location;lat;lon;timestamp;P1;durP1;ratioP1;P2;durP2;ratioP2
52354;SDS011;38286;51.156;17.038;2022-12-24T00:00:33;32.75;;;16.92;;
52354;SDS011;38286;51.156;17.038;2022-12-24T00:03:16;25.92;;;15.27;;
52354;SDS011;38286;51.156;17.038;2022-12-24T00:05:41;24.73;;;13.27;;
52354;SDS011;38286;51.156;17.038;2022-12-24T00:08:07;25.27;;;13.40;;
52354;SDS011;38286;51.156;17.038;2022-12-24T00:10:32;23.52;;;13.43;;
52354;SDS011;38286;51.156;17.038;2022-12-24T00:12:58;22.88;;;13.68;;
52354;SDS011;38286;51.156;17.038;2022-12-24T00:15:24;22.73;;;12.82;;
52354;SDS011;38286;51.156;17.038;2022-12-24T00:17:49;27.70;;;15.32;;
52354;SDS011;38286;51.156;17.038;2022-12-24T00:20:15;27.02;;;14.25;;
52354;SDS011;38286;51.156;17.038;2022-12-24T00:22:41;27.23;;;14.45;;
52354;SDS011;38286;51.156;17.038;2022-12-24T00:25:07;28.33;;;14.82;;
52354;SDS011;38286;51.156;17.038;2022-12-24T00:27:32;30.17;;;14.85;;
52354;SDS011;38286;51.156;17.038;2022-12-24T00:29:58;26.92;;;15.18;;
52354;SDS011;38286;51.156;17.038;2022-12-24T00:32:24;30.55;;;15.23;;
52354;SDS011;38286;51.156;17.038;2022-12-24T00:34:50;31.55;;;16.95;;
52354;SDS011;38286;51.156;17.038;2022-12-24T00:37:15;29.80;;;15.07;;
52354;SDS011;38286;51.156;17.038;2022-12-24T00:39:41;28.83;;;15.90;;
52354;SDS011;38286;51.156;17.038;2022-12-24T00:42:06;31.55;;;15.57;;
52354;SDS011;38286;51.156;17.038;2022-12-24T00:44:32;25.75;;;13.77;;
52354;SDS011;38286;51.156;17.038;2022-12-24T00:46:58;27.10;;;14.30;;
52354;SDS011;38286;51.156;17.038;2022-12-24T00:49:23;25.10;;;13.93;;
52354;SDS011;38286;51.156;17.038;2022-12-24T00:51:49;27.67;;;15.30;;
52354;SDS011;38286;51.156;17.038;2022-12-24T00:54:14;29.15;;;15.55;;
52354;SDS011;38286;51.156;17.038;2022-12-24T00:56:40;30.42;;;16.13;;
52354;SDS011;38286;51.156;17.038;2022-12-24T00:59:06;26.88;;;15.45;;
52354;SDS011;38286;51.156;17.038;2022-12-24T01:01:31;31.75;;;15.55;;
52354;SDS011;38286;51.156;17.038;2022-12-24T01:03:57;28.83;;;15.63;;
52354;SDS011;38286;51.156;17.038;2022-12-24T01:06:41;29.38;;;15.82;;
52354;SDS011;38286;51.156;17.038;2022-12-24T01:09:07;26.25;;;15.05;;
52354;SDS011;38286;51.156;17.038;2022-12-24T01:11:33;26.95;;;13.55;;
52354;SDS011;38286;51.156;17.038;2022-12-24T01:13:58;26.63;;;13.93;;
52354;SDS011;38286;51.156;17.038;2022-12-24T01:16:24;23.45;;;12.85;;
52354;SDS011;38286;51.156;17.038;2022-12-24T01:18:50;22.65;;;13.02;;
52354;SDS011;38286;51.156;17.038;2022-12-24T01:21:15;23.23;;;13.43;;
52354;SDS011;38286;51.156;17.038;2022-12-24T01:23:41;22.67;;;12.52;;
52354;SDS011;38286;51.156;17.038;2022-12-24T01:26:07;23.55;;;13.57;;
52354;SDS011;38286;51.156;17.038;2022-12-24T01:28:34;23.58;;;13.18;;
52354;SDS011;38286;51.156;17.038;2022-12-24T01:30:59;26.77;;;14.68;;
52354;SDS011;38286;51.156;17.038;2022-12-24T01:33:28;26.08;;;13.57;;
52354;SDS011;38286;51.156;17.038;2022-12-24T01:35:53;26.77;;;13.48;;
52354;SDS011;38286;51.156;17.038;2022-12-24T01:38:19;27.58;;;14.18;;
52354;SDS011;38286;51.156;17.038;2022-12-24T01:40:45;25.08;;;13.15;;
52354;SDS011;38286;51.156;17.038;2022-12-24T01:43:30;26.52;;;14.45;;
52354;SDS011;38286;51.156;17.038;2022-12-24T01:54:02;22.73;;;13.02;;
52354;SDS011;38286;51.156;17.038;2022-12-24T01:56:32;24.95;;;12.35;;
52354;SDS011;38286;51.156;17.038;2022-12-24T01:59:02;23.30;;;13.77;;
52354;SDS011;38286;51.156;17.038;2022-12-24T02:01:30;24.80;;;13.65;;
52354;SDS011;38286;51.156;17.038;2022-12-24T02:03:56;24.77;;;13.45;;
52354;SDS011;38286;51.156;17.038;2022-12-24T02:06:21;26.45;;;14.63;;
52354;SDS011;38286;51.156;17.038;2022-12-24T02:08:47;27.35;;;14.88;;
52354;SDS011;38286;51.156;17.038;2022-12-24T02:11:14;30.20;;;14.98;;
52354;SDS011;38286;51.156;17.038;2022-12-24T02:13:48;25.67;;;15.50;;
52354;SDS011;38286;51.156;17.038;2022-12-24T02:16:19;26.97;;;14.57;;
52354;SDS011;38286;51.156;17.038;2022-12-24T02:24:36;27.20;;;14.10;;
52354;SDS011;38286;51.156;17.038;2022-12-24T02:30:49;24.38;;;13.45;;
52354;SDS011;38286;51.156;17.038;2022-12-24T02:35:50;26.45;;;14.68;;
52354;SDS011;38286;51.156;17.038;2022-12-24T02:38:25;27.67;;;14.38;;
52354;SDS011;38286;51.156;17.038;2022-12-24T02:41:29;25.35;;;14.13;;
52354;SDS011;38286;51.156;17.038;2022-12-24T02:44:14;23.42;;;13.18;;
52354;SDS011;38286;51.156;17.038;2022-12-24T02:46:40;24.58;;;13.27;;
52354;SDS011;38286;51.156;17.038;2022-12-24T02:49:06;21.77;;;11.93;;
52354;SDS011;38286;51.156;17.038;2022-12-24T02:51:32;25.20;;;12.73;;
52354;SDS011;38286;51.156;17.038;2022-12-24T02:53:57;22.98;;;12.32;;
52354;SDS011;38286;51.156;17.038;2022-12-24T03:08:06;28.08;;;15.00;;
52354;SDS011;38286;51.156;17.038;2022-12-24T03:13:21;21.83;;;11.57;;
52354;SDS011;38286;51.156;17.038;2022-12-24T03:15:48;21.65;;;11.25;;
52354;SDS011;38286;51.156;17.038;2022-12-24T03:18:17;17.10;;;10.07;;
52354;SDS011;38286;51.156;17.038;2022-12-24T03:20:53;18.67;;;10.48;;
52354;SDS011;38286;51.156;17.038;2022-12-24T03:23:22;19.02;;;10.50;;
52354;SDS011;38286;51.156;17.038;2022-12-24T03:25:48;15.35;;;9.43;;
52354;SDS011;38286;51.156;17.038;2022-12-24T03:28:15;19.98;;;10.98;;
52354;SDS011;38286;51.156;17.038;2022-12-24T03:30:43;17.92;;;9.85;;
52354;SDS011;38286;51.156;17.038;2022-12-24T03:33:11;11.90;;;6.97;;
52354;SDS011;38286;51.156;17.038;2022-12-24T03:35:37;10.90;;;6.35;;
52354;SDS011;38286;51.156;17.038;2022-12-24T03:38:03;12.48;;;6.25;;
52354;SDS011;38286;51.156;17.038;2022-12-24T03:40:28;10.73;;;6.28;;
52354;SDS011;38286;51.156;17.038;2022-12-24T03:42:54;9.40;;;5.68;;
52354;SDS011;38286;51.156;17.038;2022-12-24T03:45:20;10.05;;;5.95;;
52354;SDS011;38286;51.156;17.038;2022-12-24T03:47:46;10.02;;;5.78;;
52354;SDS011;38286;51.156;17.038;2022-12-24T03:50:11;7.85;;;5.07;;
52354;SDS011;38286;51.156;17.038;2022-12-24T03:52:37;7.97;;;5.13;;
52354;SDS011;38286;51.156;17.038;2022-12-24T03:55:03;9.40;;;5.15;;
52354;SDS011;38286;51.156;17.038;2022-12-24T03:57:29;10.70;;;5.88;;
52354;SDS011;38286;51.156;17.038;2022-12-24T03:59:54;9.40;;;6.15;;
52354;SDS011;38286;51.156;17.038;2022-12-24T04:02:20;9.55;;;5.65;;
52354;SDS011;38286;51.156;17.038;2022-12-24T04:04:46;10.30;;;5.35;;
52354;SDS011;38286;51.156;17.038;2022-12-24T04:07:12;9.20;;;5.03;;
52354;SDS011;38286;51.156;17.038;2022-12-24T04:09:37;6.90;;;4.45;;
52354;SDS011;38286;51.156;17.038;2022-12-24T04:12:03;6.68;;;4.55;;
52354;SDS011;38286;51.156;17.038;2022-12-24T04:14:29;7.15;;;4.35;;
52354;SDS011;38286;51.156;17.038;2022-12-24T04:16:55;7.72;;;4.07;;
52354;SDS011;38286;51.156;17.038;2022-12-24T04:19:20;7.82;;;4.22;;
52354;SDS011;38286;51.156;17.038;2022-12-24T04:21:46;5.55;;;3.80;;
52354;SDS011;38286;51.156;17.038;2022-12-24T04:24:11;7.50;;;3.83;;
52354;SDS011;38286;51.156;17.038;2022-12-24T04:26:37;12.15;;;4.10;;
52354;SDS011;38286;51.156;17.038;2022-12-24T04:29:03;6.85;;;3.75;;
52354;SDS011;38286;51.156;17.038;2022-12-24T04:31:28;6.35;;;3.42;;
52354;SDS011;38286;51.156;17.038;2022-12-24T04:33:54;8.50;;;3.80;;
52354;SDS011;38286;51.156;17.038;2022-12-24T04:36:19;9.80;;;3.72;;
52354;SDS011;38286;51.156;17.038;2022-12-24T04:38:47;9.57;;;3.35;;
52354;SDS011;38286;51.156;17.038;2022-12-24T04:41:14;8.15;;;3.00;;
52354;SDS011;38286;51.156;17.038;2022-12-24T04:43:40;7.25;;;3.20;;
52354;SDS011;38286;51.156;17.038;2022-12-24T04:46:06;5.93;;;3.25;;
52354;SDS011;38286;51.156;17.038;2022-12-24T04:48:33;7.97;;;3.58;;
52354;SDS011;38286;51.156;17.038;2022-12-24T04:51:02;7.70;;;3.72;;
52354;SDS011;38286;51.156;17.038;2022-12-24T04:53:29;7.43;;;3.40;;
52354;SDS011;38286;51.156;17.038;2022-12-24T04:55:54;7.55;;;3.28;;
52354;SDS011;38286;51.156;17.038;2022-12-24T04:58:20;10.15;;;3.67;;
52354;SDS011;38286;51.156;17.038;2022-12-24T05:00:46;7.68;;;3.70;;
52354;SDS011;38286;51.156;17.038;2022-12-24T05:03:12;6.72;;;3.60;;
52354;SDS011;38286;51.156;17.038;2022-12-24T05:05:37;6.38;;;4.00;;
52354;SDS011;38286;51.156;17.038;2022-12-24T05:08:03;8.35;;;3.85;;
52354;SDS011;38286;51.156;17.038;2022-12-24T05:10:29;8.27;;;3.65;;
52354;SDS011;38286;51.156;17.038;2022-12-24T05:12:54;9.27;;;4.13;;
52354;SDS011;38286;51.156;17.038;2022-12-24T05:15:20;7.63;;;4.38;;
52354;SDS011;38286;51.156;17.038;2022-12-24T05:17:46;7.78;;;4.13;;
52354;SDS011;38286;51.156;17.038;2022-12-24T05:20:11;7.85;;;4.00;;
52354;SDS011;38286;51.156;17.038;2022-12-24T05:22:37;8.23;;;3.90;;
52354;SDS011;38286;51.156;17.038;2022-12-24T05:25:21;8.15;;;4.28;;
52354;SDS011;38286;51.156;17.038;2022-12-24T05:28:05;5.32;;;3.08;;
52354;SDS011;38286;51.156;17.038;2022-12-24T05:30:31;5.47;;;2.88;;
52354;SDS011;38286;51.156;17.038;2022-12-24T05:32:56;4.57;;;3.05;;
52354;SDS011;38286;51.156;17.038;2022-12-24T05:35:22;7.43;;;3.00;;
52354;SDS011;38286;51.156;17.038;2022-12-24T05:37:48;7.68;;;3.00;;
52354;SDS011;38286;51.156;17.038;2022-12-24T05:40:13;3.90;;;2.10;;
52354;SDS011;38286;51.156;17.038;2022-12-24T05:42:39;6.97;;;2.40;;
52354;SDS011;38286;51.156;17.038;2022-12-24T05:45:04;4.32;;;2.58;;
52354;SDS011;38286;51.156;17.038;2022-12-24T05:47:31;5.75;;;2.60;;
52354;SDS011;38286;51.156;17.038;2022-12-24T05:49:56;5.45;;;2.03;;
52354;SDS011;38286;51.156;17.038;2022-12-24T05:52:22;9.10;;;2.83;;
52354;SDS011;38286;51.156;17.038;2022-12-24T05:54:47;6.25;;;2.63;;
52354;SDS011;38286;51.156;17.038;2022-12-24T05:57:14;6.47;;;2.80;;
52354;SDS011;38286;51.156;17.038;2022-12-24T05:59:40;8.07;;;2.75;;
52354;SDS011;38286;51.156;17.038;2022-12-24T06:02:06;6.15;;;2.90;;
52354;SDS011;38286;51.156;17.038;2022-12-24T06:04:31;4.13;;;2.65;;
52354;SDS011;38286;51.156;17.038;2022-12-24T06:06:57;6.43;;;2.88;;
52354;SDS011;38286;51.156;17.038;2022-12-24T06:09:23;6.20;;;2.85;;
52354;SDS011;38286;51.156;17.038;2022-12-24T06:11:48;5.20;;;2.85;;
52354;SDS011;38286;51.156;17.038;2022-12-24T06:14:14;7.78;;;2.78;;
52354;SDS011;38286;51.156;17.038;2022-12-24T06:16:40;6.22;;;3.05;;
52354;SDS011;38286;51.156;17.038;2022-12-24T06:19:05;9.05;;;3.05;;
52354;SDS011;38286;51.156;17.038;2022-12-24T06:21:31;8.82;;;3.33;;
52354;SDS011;38286;51.156;17.038;2022-12-24T06:23:56;9.27;;;3.17;;
52354;SDS011;38286;51.156;17.038;2022-12-24T06:26:22;9.35;;;3.45;;
52354;SDS011;38286;51.156;17.038;2022-12-24T06:28:48;6.53;;;3.13;;
52354;SDS011;38286;51.156;17.038;2022-12-24T06:31:16;8.43;;;2.97;;
52354;SDS011;38286;51.156;17.038;2022-12-24T06:33:43;5.25;;;2.75;;
52354;SDS011;38286;51.156;17.038;2022-12-24T06:36:12;6.78;;;2.95;;
52354;SDS011;38286;51.156;17.038;2022-12-24T06:38:42;4.68;;;2.90;;
52354;SDS011;38286;51.156;17.038;2022-12-24T06:41:08;5.57;;;2.97;;
52354;SDS011;38286;51.156;17.038;2022-12-24T06:43:34;8.60;;;3.08;;
52354;SDS011;38286;51.156;17.038;2022-12-24T06:46:00;4.40;;;2.75;;
52354;SDS011;38286;51.156;17.038;2022-12-24T06:48:26;5.68;;;2.95;;
52354;SDS011;38286;51.156;17.038;2022-12-24T06:50:52;7.30;;;3.13;;
52354;SDS011;38286;51.156;17.038;2022-12-24T06:53:18;4.55;;;2.80;;
52354;SDS011;38286;51.156;17.038;2022-12-24T06:55:43;5.13;;;3.00;;
52354;SDS011;38286;51.156;17.038;2022-12-24T06:58:09;7.85;;;2.83;;
52354;SDS011;38286;51.156;17.038;2022-12-24T07:00:35;5.18;;;3.00;;
52354;SDS011;38286;51.156;17.038;2022-12-24T07:03:01;5.20;;;3.05;;
52354;SDS011;38286;51.156;17.038;2022-12-24T07:05:27;4.15;;;2.97;;
52354;SDS011;38286;51.156;17.038;2022-12-24T07:07:53;7.07;;;2.95;;
52354;SDS011;38286;51.156;17.038;2022-12-24T07:10:19;6.03;;;3.65;;
52354;SDS011;38286;51.156;17.038;2022-12-24T07:12:45;7.03;;;3.15;;
52354;SDS011;38286;51.156;17.038;2022-12-24T07:15:12;6.63;;;4.00;;
52354;SDS011;38286;51.156;17.038;2022-12-24T07:17:38;7.93;;;3.35;;
52354;SDS011;38286;51.156;17.038;2022-12-24T07:20:04;4.93;;;3.17;;
52354;SDS011;38286;51.156;17.038;2022-12-24T07:22:31;4.45;;;2.60;;
52354;SDS011;38286;51.156;17.038;2022-12-24T07:24:56;4.40;;;2.78;;
52354;SDS011;38286;51.156;17.038;2022-12-24T07:27:22;6.28;;;3.00;;
52354;SDS011;38286;51.156;17.038;2022-12-24T07:29:48;5.13;;;2.90;;
52354;SDS011;38286;51.156;17.038;2022-12-24T07:32:13;5.05;;;2.90;;
52354;SDS011;38286;51.156;17.038;2022-12-24T07:34:39;3.97;;;2.67;;
52354;SDS011;38286;51.156;17.038;2022-12-24T07:37:05;3.58;;;2.50;;
52354;SDS011;38286;51.156;17.038;2022-12-24T07:39:31;5.60;;;2.58;;
52354;SDS011;38286;51.156;17.038;2022-12-24T07:41:57;4.25;;;2.53;;
52354;SDS011;38286;51.156;17.038;2022-12-24T07:44:22;6.20;;;3.08;;
52354;SDS011;38286;51.156;17.038;2022-12-24T07:46:49;7.07;;;3.40;;
52354;SDS011;38286;51.156;17.038;2022-12-24T07:49:14;6.40;;;3.38;;
52354;SDS011;38286;51.156;17.038;2022-12-24T07:51:40;6.07;;;3.75;;
52354;SDS011;38286;51.156;17.038;2022-12-24T07:54:06;4.72;;;3.65;;
52354;SDS011;38286;51.156;17.038;2022-12-24T07:56:31;5.30;;;3.85;;
52354;SDS011;38286;51.156;17.038;2022-12-24T07:58:57;5.50;;;3.95;;
52354;SDS011;38286;51.156;17.038;2022-12-24T08:01:23;6.07;;;4.30;;
52354;SDS011;38286;51.156;17.038;2022-12-24T08:03:49;6.70;;;4.70;;
52354;SDS011;38286;51.156;17.038;2022-12-24T08:06:21;7.15;;;5.05;;
52354;SDS011;38286;51.156;17.038;2022-12-24T08:08:47;7.13;;;5.22;;
52354;SDS011;38286;51.156;17.038;2022-12-24T08:11:13;9.02;;;6.05;;
52354;SDS011;38286;51.156;17.038;2022-12-24T08:13:39;9.50;;;6.38;;
52354;SDS011;38286;51.156;17.038;2022-12-24T08:16:04;9.50;;;6.55;;
52354;SDS011;38286;51.156;17.038;2022-12-24T08:18:30;11.68;;;6.95;;
52354;SDS011;38286;51.156;17.038;2022-12-24T08:20:56;10.55;;;7.20;;
52354;SDS011;38286;51.156;17.038;2022-12-24T08:23:21;12.27;;;7.38;;
52354;SDS011;38286;51.156;17.038;2022-12-24T08:25:47;13.27;;;7.57;;
52354;SDS011;38286;51.156;17.038;2022-12-24T08:28:14;12.20;;;7.78;;
52354;SDS011;38286;51.156;17.038;2022-12-24T08:30:43;10.07;;;6.75;;
52354;SDS011;38286;51.156;17.038;2022-12-24T08:33:09;12.98;;;8.18;;
52354;SDS011;38286;51.156;17.038;2022-12-24T08:35:34;12.38;;;7.85;;
52354;SDS011;38286;51.156;17.038;2022-12-24T08:38:00;12.13;;;7.82;;
52354;SDS011;38286;51.156;17.038;2022-12-24T08:40:25;13.48;;;8.93;;
52354;SDS011;38286;51.156;17.038;2022-12-24T08:42:51;13.90;;;8.05;;
52354;SDS011;38286;51.156;17.038;2022-12-24T08:45:17;13.95;;;8.45;;
52354;SDS011;38286;51.156;17.038;2022-12-24T08:47:42;14.23;;;8.50;;
52354;SDS011;38286;51.156;17.038;2022-12-24T08:50:08;12.35;;;8.50;;
52354;SDS011;38286;51.156;17.038;2022-12-24T08:52:34;13.65;;;8.32;;
52354;SDS011;38286;51.156;17.038;2022-12-24T08:55:00;12.15;;;7.60;;
52354;SDS011;38286;51.156;17.038;2022-12-24T08:57:26;13.63;;;8.43;;
52354;SDS011;38286;51.156;17.038;2022-12-24T08:59:51;11.45;;;7.18;;
52354;SDS011;38286;51.156;17.038;2022-12-24T09:02:18;10.95;;;7.97;;
52354;SDS011;38286;51.156;17.038;2022-12-24T09:04:44;11.73;;;8.27;;
52354;SDS011;38286;51.156;17.038;2022-12-24T09:07:09;12.48;;;8.15;;
52354;SDS011;38286;51.156;17.038;2022-12-24T09:09:35;14.90;;;8.80;;
52354;SDS011;38286;51.156;17.038;2022-12-24T09:12:02;13.18;;;8.30;;
52354;SDS011;38286;51.156;17.038;2022-12-24T09:14:29;13.70;;;8.10;;
52354;SDS011;38286;51.156;17.038;2022-12-24T09:16:55;14.38;;;8.27;;
52354;SDS011;38286;51.156;17.038;2022-12-24T09:19:21;12.80;;;8.10;;
52354;SDS011;38286;51.156;17.038;2022-12-24T09:21:46;11.23;;;8.02;;
52354;SDS011;38286;51.156;17.038;2022-12-24T09:24:12;13.88;;;8.10;;
52354;SDS011;38286;51.156;17.038;2022-12-24T09:26:38;13.48;;;8.70;;
52354;SDS011;38286;51.156;17.038;2022-12-24T09:29:05;14.48;;;8.15;;
52354;SDS011;38286;51.156;17.038;2022-12-24T09:31:31;13.55;;;8.10;;
52354;SDS011;38286;51.156;17.038;2022-12-24T09:33:57;14.10;;;8.10;;
52354;SDS011;38286;51.156;17.038;2022-12-24T09:36:23;11.40;;;7.15;;
52354;SDS011;38286;51.156;17.038;2022-12-24T09:38:48;12.52;;;7.63;;
52354;SDS011;38286;51.156;17.038;2022-12-24T09:41:38;13.35;;;7.68;;
52354;SDS011;38286;51.156;17.038;2022-12-24T09:47:07;12.20;;;6.97;;
52354;SDS011;38286;51.156;17.038;2022-12-24T09:49:38;10.05;;;6.60;;
52354;SDS011;38286;51.156;17.038;2022-12-24T09:52:07;9.73;;;6.15;;
52354;SDS011;38286;51.156;17.038;2022-12-24T09:54:43;10.52;;;6.63;;
52354;SDS011;38286;51.156;17.038;2022-12-24T09:57:28;10.02;;;6.13;;
52354;SDS011;38286;51.156;17.038;2022-12-24T09:59:56;9.13;;;6.17;;
52354;SDS011;38286;51.156;17.038;2022-12-24T10:02:22;8.90;;;6.05;;
52354;SDS011;38286;51.156;17.038;2022-12-24T10:04:48;9.20;;;5.95;;
52354;SDS011;38286;51.156;17.038;2022-12-24T10:07:30;9.63;;;5.47;;
52354;SDS011;38286;51.156;17.038;2022-12-24T10:15:26;9.98;;;5.95;;
52354;SDS011;38286;51.156;17.038;2022-12-24T10:17:57;7.63;;;4.78;;
52354;SDS011;38286;51.156;17.038;2022-12-24T10:23:40;8.27;;;5.45;;
52354;SDS011;38286;51.156;17.038;2022-12-24T10:26:18;8.13;;;5.15;;
52354;SDS011;38286;51.156;17.038;2022-12-24T10:28:52;10.90;;;5.78;;
52354;SDS011;38286;51.156;17.038;2022-12-24T10:31:22;8.50;;;5.35;;
52354;SDS011;38286;51.156;17.038;2022-12-24T10:33:58;8.95;;;5.95;;
52354;SDS011;38286;51.156;17.038;2022-12-24T10:38:53;8.30;;;5.38;;
52354;SDS011;38286;51.156;17.038;2022-12-24T10:41:18;8.50;;;5.40;;
52354;SDS011;38286;51.156;17.038;2022-12-24T10:43:44;9.80;;;5.57;;
52354;SDS011;38286;51.156;17.038;2022-12-24T10:46:18;9.55;;;5.55;;
52354;SDS011;38286;51.156;17.038;2022-12-24T10:54:34;9.93;;;5.38;;
52354;SDS011;38286;51.156;17.038;2022-12-24T10:56:40;10.30;;;5.82;;
52354;SDS011;38286;51.156;17.038;2022-12-24T10:59:21;10.05;;;6.25;;
52354;SDS011;38286;51.156;17.038;2022-12-24T11:01:47;8.93;;;6.10;;
52354;SDS011;38286;51.156;17.038;2022-12-24T11:04:15;11.55;;;6.85;;
52354;SDS011;38286;51.156;17.038;2022-12-24T11:06:52;9.57;;;6.00;;
52354;SDS011;38286;51.156;17.038;2022-12-24T11:09:20;8.27;;;6.07;;
52354;SDS011;38286;51.156;17.038;2022-12-24T11:11:47;10.63;;;6.38;;
52354;SDS011;38286;51.156;17.038;2022-12-24T11:14:14;8.05;;;4.90;;
52354;SDS011;38286;51.156;17.038;2022-12-24T11:16:46;8.05;;;5.03;;
52354;SDS011;38286;51.156;17.038;2022-12-24T11:19:15;9.07;;;4.90;;
52354;SDS011;38286;51.156;17.038;2022-12-24T11:21:43;10.18;;;4.97;;
52354;SDS011;38286;51.156;17.038;2022-12-24T11:26:38;9.05;;;5.00;;
52354;SDS011;38286;51.156;17.038;2022-12-24T11:29:10;8.73;;;4.63;;
52354;SDS011;38286;51.156;17.038;2022-12-24T11:31:37;7.00;;;4.30;;
52354;SDS011;38286;51.156;17.038;2022-12-24T11:34:16;6.68;;;4.22;;
52354;SDS011;38286;51.156;17.038;2022-12-24T11:36:43;6.10;;;4.38;;
52354;SDS011;38286;51.156;17.038;2022-12-24T11:39:16;5.50;;;3.90;;
52354;SDS011;38286;51.156;17.038;2022-12-24T11:41:44;6.53;;;4.60;;
52354;SDS011;38286;51.156;17.038;2022-12-24T11:44:10;6.45;;;4.10;;
52354;SDS011;38286;51.156;17.038;2022-12-24T11:46:37;6.95;;;4.60;;
52354;SDS011;38286;51.156;17.038;2022-12-24T11:49:05;7.43;;;4.68;;
52354;SDS011;38286;51.156;17.038;2022-12-24T11:51:39;6.85;;;4.50;;
52354;SDS011;38286;51.156;17.038;2022-12-24T11:54:15;6.03;;;4.63;;
52354;SDS011;38286;51.156;17.038;2022-12-24T11:56:51;6.60;;;4.38;;
52354;SDS011;38286;51.156;17.038;2022-12-24T12:00:03;6.32;;;4.65;;
52354;SDS011;38286;51.156;17.038;2022-12-24T12:02:16;9.07;;;4.90;;
52354;SDS011;38286;51.156;17.038;2022-12-24T12:04:45;7.85;;;4.93;;
52354;SDS011;38286;51.156;17.038;2022-12-24T12:07:16;9.05;;;4.95;;
52354;SDS011;38286;51.156;17.038;2022-12-24T12:09:46;8.48;;;4.85;;
52354;SDS011;38286;51.156;17.038;2022-12-24T12:12:15;10.05;;;4.88;;
52354;SDS011;38286;51.156;17.038;2022-12-24T12:14:44;9.05;;;4.40;;
52354;SDS011;38286;51.156;17.038;2022-12-24T12:17:15;11.45;;;4.80;;
52354;SDS011;38286;51.156;17.038;2022-12-24T12:20:11;10.27;;;4.18;;
52354;SDS011;38286;51.156;17.038;2022-12-24T12:25:21;7.75;;;3.30;;
52354;SDS011;38286;51.156;17.038;2022-12-24T12:27:51;9.50;;;3.83;;
52354;SDS011;38286;51.156;17.038;2022-12-24T12:30:19;10.02;;;4.10;;
52354;SDS011;38286;51.156;17.038;2022-12-24T12:32:57;8.57;;;4.10;;
52354;SDS011;38286;51.156;17.038;2022-12-24T12:40:27;12.77;;;3.83;;
52354;SDS011;38286;51.156;17.038;2022-12-24T12:43:23;11.68;;;3.65;;
52354;SDS011;38286;51.156;17.038;2022-12-24T12:45:59;15.77;;;4.47;;
52354;SDS011;38286;51.156;17.038;2022-12-24T12:48:48;12.85;;;4.00;;
52354;SDS011;38286;51.156;17.038;2022-12-24T12:51:23;8.60;;;3.65;;
52354;SDS011;38286;51.156;17.038;2022-12-24T12:56:50;9.48;;;3.53;;
52354;SDS011;38286;51.156;17.038;2022-12-24T12:59:51;13.40;;;3.10;;
52354;SDS011;38286;51.156;17.038;2022-12-24T13:14:05;15.90;;;3.60;;
52354;SDS011;38286;51.156;17.038;2022-12-24T13:16:39;13.18;;;3.47;;
52354;SDS011;38286;51.156;17.038;2022-12-24T13:22:14;10.88;;;3.40;;
52354;SDS011;38286;51.156;17.038;2022-12-24T13:24:48;12.75;;;3.35;;
52354;SDS011;38286;51.156;17.038;2022-12-24T13:27:25;9.55;;;3.53;;
52354;SDS011;38286;51.156;17.038;2022-12-24T13:29:59;10.45;;;3.38;;
52354;SDS011;38286;51.156;17.038;2022-12-24T13:37:49;9.55;;;3.70;;
52354;SDS011;38286;51.156;17.038;2022-12-24T13:40:16;13.25;;;4.22;;
52354;SDS011;38286;51.156;17.038;2022-12-24T13:50:39;13.05;;;3.85;;
52354;SDS011;38286;51.156;17.038;2022-12-24T13:55:49;7.63;;;2.90;;
52354;SDS011;38286;51.156;17.038;2022-12-24T13:58:19;6.70;;;3.30;;
52354;SDS011;38286;51.156;17.038;2022-12-24T14:00:53;14.25;;;3.05;;
52354;SDS011;38286;51.156;17.038;2022-12-24T14:03:22;7.75;;;3.35;;
52354;SDS011;38286;51.156;17.038;2022-12-24T14:06:34;12.75;;;3.53;;
52354;SDS011;38286;51.156;17.038;2022-12-24T14:09:18;14.85;;;2.80;;
52354;SDS011;38286;51.156;17.038;2022-12-24T14:14:25;7.07;;;3.05;;
52354;SDS011;38286;51.156;17.038;2022-12-24T14:16:59;10.05;;;3.25;;
52354;SDS011;38286;51.156;17.038;2022-12-24T14:19:32;12.02;;;3.25;;
52354;SDS011;38286;51.156;17.038;2022-12-24T14:25:00;6.13;;;2.45;;
52354;SDS011;38286;51.156;17.038;2022-12-24T14:27:45;8.07;;;2.42;;
52354;SDS011;38286;51.156;17.038;2022-12-24T14:30:27;14.27;;;2.95;;
52354;SDS011;38286;51.156;17.038;2022-12-24T14:32:54;6.22;;;2.60;;
52354;SDS011;38286;51.156;17.038;2022-12-24T14:37:59;14.20;;;4.15;;
52354;SDS011;38286;51.156;17.038;2022-12-24T14:40:28;7.77;;;2.80;;
52354;SDS011;38286;51.156;17.038;2022-12-24T14:45:46;25.90;;;10.20;;
52354;SDS011;38286;51.156;17.038;2022-12-24T14:51:14;7.22;;;2.30;;
52354;SDS011;38286;51.156;17.038;2022-12-24T14:53:56;10.35;;;3.17;;
52354;SDS011;38286;51.156;17.038;2022-12-24T14:57:05;7.95;;;2.53;;
52354;SDS011;38286;51.156;17.038;2022-12-24T14:59:39;11.07;;;2.90;;
52354;SDS011;38286;51.156;17.038;2022-12-24T15:05:13;11.68;;;3.13;;
52354;SDS011;38286;51.156;17.038;2022-12-24T15:07:43;7.00;;;2.33;;
52354;SDS011;38286;51.156;17.038;2022-12-24T15:10:25;14.82;;;3.67;;
52354;SDS011;38286;51.156;17.038;2022-12-24T15:12:53;10.82;;;2.92;;
52354;SDS011;38286;51.156;17.038;2022-12-24T15:15:20;12.35;;;3.17;;
52354;SDS011;38286;51.156;17.038;2022-12-24T15:17:46;13.75;;;3.42;;
52354;SDS011;38286;51.156;17.038;2022-12-24T15:20:22;9.63;;;2.90;;
52354;SDS011;38286;51.156;17.038;2022-12-24T15:22:50;11.02;;;3.13;;
52354;SDS011;38286;51.156;17.038;2022-12-24T15:25:18;14.07;;;3.47;;
52354;SDS011;38286;51.156;17.038;2022-12-24T15:27:46;9.25;;;3.63;;
52354;SDS011;38286;51.156;17.038;2022-12-24T15:30:13;12.00;;;3.42;;
52354;SDS011;38286;51.156;17.038;2022-12-24T15:32:40;8.65;;;3.33;;
52354;SDS011;38286;51.156;17.038;2022-12-24T15:35:28;17.27;;;3.85;;
52354;SDS011;38286;51.156;17.038;2022-12-24T15:37:56;11.52;;;3.65;;
52354;SDS011;38286;51.156;17.038;2022-12-24T15:40:22;8.35;;;3.50;;
52354;SDS011;38286;51.156;17.038;2022-12-24T15:42:49;9.30;;;2.95;;
52354;SDS011;38286;51.156;17.038;2022-12-24T15:45:19;10.80;;;3.42;;
52354;SDS011;38286;51.156;17.038;2022-12-24T15:47:51;8.10;;;3.08;;
52354;SDS011;38286;51.156;17.038;2022-12-24T15:53:04;12.38;;;3.70;;
52354;SDS011;38286;51.156;17.038;2022-12-24T15:55:36;15.48;;;5.60;;
52354;SDS011;38286;51.156;17.038;2022-12-24T16:06:15;13.43;;;4.15;;
52354;SDS011;38286;51.156;17.038;2022-12-24T16:08:41;13.23;;;3.45;;
52354;SDS011;38286;51.156;17.038;2022-12-24T16:16:45;14.93;;;3.72;;
52354;SDS011;38286;51.156;17.038;2022-12-24T16:21:57;11.55;;;3.67;;
52354;SDS011;38286;51.156;17.038;2022-12-24T16:24:28;8.40;;;3.50;;
52354;SDS011;38286;51.156;17.038;2022-12-24T16:26:55;12.10;;;3.90;;
52354;SDS011;38286;51.156;17.038;2022-12-24T16:29:21;13.95;;;4.20;;
52354;SDS011;38286;51.156;17.038;2022-12-24T16:31:51;16.02;;;4.38;;
52354;SDS011;38286;51.156;17.038;2022-12-24T16:34:26;15.57;;;4.80;;
52354;SDS011;38286;51.156;17.038;2022-12-24T16:36:53;15.02;;;3.78;;
52354;SDS011;38286;51.156;17.038;2022-12-24T16:39:20;11.68;;;4.60;;
52354;SDS011;38286;51.156;17.038;2022-12-24T16:41:47;13.00;;;3.60;;
52354;SDS011;38286;51.156;17.038;2022-12-24T16:44:32;16.83;;;3.80;;
52354;SDS011;38286;51.156;17.038;2022-12-24T16:46:57;17.27;;;3.97;;
52354;SDS011;38286;51.156;17.038;2022-12-24T16:49:24;12.60;;;4.15;;